sensor_id;sensor_type;location;lat;lon;timestamp;P1;durP1;ratioP1;P2;durP2;ratioP2
42134;SDS011;28312;43.460;11.810;2022-11-04T00:01:30;5.72;;;3.35;;
42134;SDS011;28312;43.460;11.810;2022-11-04T00:05:34;3.97;;;3.10;;
42134;SDS011;28312;43.460;11.810;2022-11-04T00:09:37;6.35;;;2.95;;
42134;SDS011;28312;43.460;11.810;2022-11-04T00:13:41;4.75;;;3.90;;
42134;SDS011;28312;43.460;11.810;2022-11-04T00:17:44;6.32;;;2.95;;
42134;SDS011;28312;43.460;11.810;2022-11-04T00:21:48;10.25;;;3.90;;
42134;SDS011;28312;43.460;11.810;2022-11-04T00:26:10;4.53;;;3.28;;
42134;SDS011;28312;43.460;11.810;2022-11-04T00:30:32;4.75;;;3.45;;
42134;SDS011;28312;43.460;11.810;2022-11-04T00:34:35;6.40;;;4.00;;
42134;SDS011;28312;43.460;11.810;2022-11-04T00:38:39;4.78;;;3.25;;
42134;SDS011;28312;43.460;11.810;2022-11-04T00:42:42;6.32;;;4.25;;
42134;SDS011;28312;43.460;11.810;2022-11-04T00:46:47;9.00;;;4.03;;
42134;SDS011;28312;43.460;11.810;2022-11-04T00:50:52;6.45;;;5.15;;
42134;SDS011;28312;43.460;11.810;2022-11-04T00:54:55;4.90;;;3.60;;
42134;SDS011;28312;43.460;11.810;2022-11-04T00:58:58;4.78;;;3.17;;
42134;SDS011;28312;43.460;11.810;2022-11-04T01:03:02;4.05;;;2.58;;
42134;SDS011;28312;43.460;11.810;2022-11-04T01:07:07;3.38;;;1.90;;
42134;SDS011;28312;43.460;11.810;2022-11-04T01:11:10;3.40;;;1.83;;
42134;SDS011;28312;43.460;11.810;2022-11-04T01:15:14;2.72;;;1.50;;
42134;SDS011;28312;43.460;11.810;2022-11-04T01:19:19;2.25;;;1.50;;
42134;SDS011;28312;43.460;11.810;2022-11-04T01:23:22;3.47;;;2.10;;
42134;SDS011;28312;43.460;11.810;2022-11-04T01:27:26;2.80;;;1.75;;
42134;SDS011;28312;43.460;11.810;2022-11-04T01:31:32;2.67;;;1.38;;
42134;SDS011;28312;43.460;11.810;2022-11-04T01:35:35;4.00;;;1.17;;
42134;SDS011;28312;43.460;11.810;2022-11-04T01:39:39;3.05;;;1.30;;
42134;SDS011;28312;43.460;11.810;2022-11-04T01:48:00;3.33;;;1.55;;
42134;SDS011;28312;43.460;11.810;2022-11-04T01:52:21;4.65;;;1.75;;
42134;SDS011;28312;43.460;11.810;2022-11-04T01:56:35;3.60;;;1.67;;
42134;SDS011;28312;43.460;11.810;2022-11-04T02:00:40;3.38;;;1.83;;
42134;SDS011;28312;43.460;11.810;2022-11-04T02:04:45;3.08;;;1.85;;
42134;SDS011;28312;43.460;11.810;2022-11-04T02:08:49;4.45;;;1.52;;
42134;SDS011;28312;43.460;11.810;2022-11-04T02:12:56;3.13;;;1.38;;
42134;SDS011;28312;43.460;11.810;2022-11-04T02:17:06;5.45;;;1.70;;
42134;SDS011;28312;43.460;11.810;2022-11-04T02:21:33;2.25;;;1.38;;
42134;SDS011;28312;43.460;11.810;2022-11-04T02:30:33;2.95;;;1.50;;
42134;SDS011;28312;43.460;11.810;2022-11-04T02:47:56;1.92;;;1.20;;
42134;SDS011;28312;43.460;11.810;2022-11-04T02:52:08;1.70;;;0.90;;
42134;SDS011;28312;43.460;11.810;2022-11-04T03:00:44;4.65;;;1.60;;
42134;SDS011;28312;43.460;11.810;2022-11-04T03:04:50;4.43;;;1.98;;
42134;SDS011;28312;43.460;11.810;2022-11-04T03:08:55;4.17;;;1.73;;
42134;SDS011;28312;43.460;11.810;2022-11-04T03:13:01;1.33;;;0.85;;
42134;SDS011;28312;43.460;11.810;2022-11-04T03:17:20;1.75;;;1.02;;
42134;SDS011;28312;43.460;11.810;2022-11-04T03:21:32;2.08;;;1.08;;
42134;SDS011;28312;43.460;11.810;2022-11-04T03:25:48;2.63;;;1.50;;
42134;SDS011;28312;43.460;11.810;2022-11-04T03:29:59;1.90;;;1.30;;
42134;SDS011;28312;43.460;11.810;2022-11-04T03:34:08;2.35;;;1.50;;
42134;SDS011;28312;43.460;11.810;2022-11-04T03:38:12;2.60;;;1.50;;
42134;SDS011;28312;43.460;11.810;2022-11-04T03:42:16;3.97;;;2.00;;
42134;SDS011;28312;43.460;11.810;2022-11-04T03:46:22;4.40;;;2.00;;
42134;SDS011;28312;43.460;11.810;2022-11-04T03:50:30;3.28;;;1.88;;
42134;SDS011;28312;43.460;11.810;2022-11-04T03:54:35;2.80;;;1.67;;
42134;SDS011;28312;43.460;11.810;2022-11-04T03:58:42;7.72;;;2.30;;
42134;SDS011;28312;43.460;11.810;2022-11-04T04:03:06;2.93;;;1.63;;
42134;SDS011;28312;43.460;11.810;2022-11-04T04:07:19;3.33;;;1.70;;
42134;SDS011;28312;43.460;11.810;2022-11-04T04:11:38;3.03;;;1.90;;
42134;SDS011;28312;43.460;11.810;2022-11-04T04:15:58;4.18;;;1.77;;
42134;SDS011;28312;43.460;11.810;2022-11-04T04:20:14;3.30;;;2.05;;
42134;SDS011;28312;43.460;11.810;2022-11-04T04:24:24;1.92;;;1.30;;
42134;SDS011;28312;43.460;11.810;2022-11-04T04:28:51;2.33;;;1.42;;
42134;SDS011;28312;43.460;11.810;2022-11-04T04:33:00;2.78;;;1.48;;
42134;SDS011;28312;43.460;11.810;2022-11-04T04:37:11;2.33;;;1.35;;
42134;SDS011;28312;43.460;11.810;2022-11-04T04:41:28;4.57;;;1.33;;
42134;SDS011;28312;43.460;11.810;2022-11-04T04:45:57;3.67;;;1.27;;
42134;SDS011;28312;43.460;11.810;2022-11-04T04:50:00;2.90;;;1.15;;
42134;SDS011;28312;43.460;11.810;2022-11-04T04:54:04;4.53;;;1.63;;
42134;SDS011;28312;43.460;11.810;2022-11-04T04:58:08;3.17;;;0.95;;
42134;SDS011;28312;43.460;11.810;2022-11-04T05:02:11;1.98;;;0.90;;
42134;SDS011;28312;43.460;11.810;2022-11-04T05:06:16;1.77;;;1.13;;
42134;SDS011;28312;43.460;11.810;2022-11-04T05:10:19;1.70;;;0.93;;
42134;SDS011;28312;43.460;11.810;2022-11-04T05:14:23;5.43;;;1.73;;
42134;SDS011;28312;43.460;11.810;2022-11-04T05:18:29;6.28;;;2.03;;
42134;SDS011;28312;43.460;11.810;2022-11-04T05:22:32;2.42;;;1.10;;
42134;SDS011;28312;43.460;11.810;2022-11-04T05:26:35;2.28;;;1.35;;
42134;SDS011;28312;43.460;11.810;2022-11-04T05:30:39;4.07;;;1.85;;
42134;SDS011;28312;43.460;11.810;2022-11-04T05:34:42;3.50;;;1.95;;
42134;SDS011;28312;43.460;11.810;2022-11-04T05:38:49;6.47;;;2.92;;
42134;SDS011;28312;43.460;11.810;2022-11-04T05:42:55;4.78;;;2.85;;
42134;SDS011;28312;43.460;11.810;2022-11-04T05:47:02;7.90;;;3.78;;
42134;SDS011;28312;43.460;11.810;2022-11-04T05:51:06;5.95;;;3.20;;
42134;SDS011;28312;43.460;11.810;2022-11-04T05:55:09;4.72;;;2.85;;
42134;SDS011;28312;43.460;11.810;2022-11-04T05:59:13;5.10;;;2.83;;
42134;SDS011;28312;43.460;11.810;2022-11-04T06:03:19;5.03;;;2.67;;
42134;SDS011;28312;43.460;11.810;2022-11-04T06:07:22;8.45;;;2.78;;
42134;SDS011;28312;43.460;11.810;2022-11-04T06:11:26;11.70;;;4.85;;
42134;SDS011;28312;43.460;11.810;2022-11-04T06:15:31;5.40;;;3.30;;
42134;SDS011;28312;43.460;11.810;2022-11-04T06:19:34;8.27;;;3.65;;
42134;SDS011;28312;43.460;11.810;2022-11-04T06:23:38;7.85;;;3.75;;
42134;SDS011;28312;43.460;11.810;2022-11-04T06:27:42;8.15;;;3.63;;
42134;SDS011;28312;43.460;11.810;2022-11-04T06:31:46;10.35;;;4.20;;
42134;SDS011;28312;43.460;11.810;2022-11-04T06:35:49;7.30;;;3.30;;
42134;SDS011;28312;43.460;11.810;2022-11-04T06:39:56;5.88;;;3.10;;
42134;SDS011;28312;43.460;11.810;2022-11-04T06:44:00;7.10;;;2.85;;
42134;SDS011;28312;43.460;11.810;2022-11-04T06:48:03;8.93;;;3.03;;
42134;SDS011;28312;43.460;11.810;2022-11-04T06:52:07;6.28;;;3.55;;
42134;SDS011;28312;43.460;11.810;2022-11-04T06:56:11;7.53;;;3.75;;
42134;SDS011;28312;43.460;11.810;2022-11-04T07:00:14;5.68;;;2.80;;
42134;SDS011;28312;43.460;11.810;2022-11-04T07:04:19;3.80;;;2.75;;
42134;SDS011;28312;43.460;11.810;2022-11-04T07:08:23;5.53;;;3.13;;
42134;SDS011;28312;43.460;11.810;2022-11-04T07:12:27;4.57;;;2.67;;
42134;SDS011;28312;43.460;11.810;2022-11-04T07:16:30;9.45;;;3.10;;
42134;SDS011;28312;43.460;11.810;2022-11-04T07:20:37;5.28;;;2.55;;
42134;SDS011;28312;43.460;11.810;2022-11-04T07:24:42;3.92;;;2.30;;
42134;SDS011;28312;43.460;11.810;2022-11-04T07:28:46;3.53;;;2.13;;
42134;SDS011;28312;43.460;11.810;2022-11-04T07:32:50;4.68;;;2.03;;
42134;SDS011;28312;43.460;11.810;2022-11-04T07:36:53;3.60;;;1.73;;
42134;SDS011;28312;43.460;11.810;2022-11-04T07:40:56;5.03;;;2.97;;
42134;SDS011;28312;43.460;11.810;2022-11-04T07:45:00;8.93;;;4.07;;
42134;SDS011;28312;43.460;11.810;2022-11-04T07:49:04;6.22;;;3.50;;
42134;SDS011;28312;43.460;11.810;2022-11-04T07:53:07;7.78;;;4.25;;
42134;SDS011;28312;43.460;11.810;2022-11-04T07:57:12;5.60;;;2.40;;
42134;SDS011;28312;43.460;11.810;2022-11-04T08:01:20;4.28;;;1.60;;
42134;SDS011;28312;43.460;11.810;2022-11-04T08:05:26;6.90;;;3.00;;
42134;SDS011;28312;43.460;11.810;2022-11-04T08:09:29;3.22;;;2.13;;
42134;SDS011;28312;43.460;11.810;2022-11-04T08:13:34;7.82;;;2.30;;
42134;SDS011;28312;43.460;11.810;2022-11-04T08:17:38;4.97;;;2.08;;
42134;SDS011;28312;43.460;11.810;2022-11-04T08:21:41;2.83;;;1.65;;
42134;SDS011;28312;43.460;11.810;2022-11-04T08:25:45;3.70;;;1.65;;
42134;SDS011;28312;43.460;11.810;2022-11-04T08:29:49;4.15;;;2.00;;
42134;SDS011;28312;43.460;11.810;2022-11-04T08:33:53;4.95;;;1.67;;
42134;SDS011;28312;43.460;11.810;2022-11-04T08:37:57;2.30;;;1.45;;
42134;SDS011;28312;43.460;11.810;2022-11-04T08:42:00;5.63;;;1.60;;
42134;SDS011;28312;43.460;11.810;2022-11-04T08:46:05;4.75;;;2.17;;
42134;SDS011;28312;43.460;11.810;2022-11-04T08:50:09;5.90;;;2.00;;
42134;SDS011;28312;43.460;11.810;2022-11-04T08:54:13;2.53;;;1.40;;
42134;SDS011;28312;43.460;11.810;2022-11-04T08:58:17;2.80;;;1.35;;
42134;SDS011;28312;43.460;11.810;2022-11-04T09:02:20;3.20;;;1.38;;
42134;SDS011;28312;43.460;11.810;2022-11-04T09:06:29;7.53;;;2.03;;
42134;SDS011;28312;43.460;11.810;2022-11-04T09:10:39;1.88;;;0.88;;
42134;SDS011;28312;43.460;11.810;2022-11-04T09:14:44;2.13;;;1.33;;
42134;SDS011;28312;43.460;11.810;2022-11-04T09:18:49;3.50;;;1.30;;
42134;SDS011;28312;43.460;11.810;2022-11-04T09:22:54;2.60;;;0.75;;
42134;SDS011;28312;43.460;11.810;2022-11-04T09:26:57;2.20;;;1.15;;
42134;SDS011;28312;43.460;11.810;2022-11-04T09:31:07;2.92;;;0.80;;
42134;SDS011;28312;43.460;11.810;2022-11-04T09:35:15;6.85;;;1.05;;
42134;SDS011;28312;43.460;11.810;2022-11-04T09:39:19;1.90;;;0.80;;
42134;SDS011;28312;43.460;11.810;2022-11-04T09:43:37;1.70;;;0.80;;
42134;SDS011;28312;43.460;11.810;2022-11-04T09:47:56;1.48;;;0.70;;
42134;SDS011;28312;43.460;11.810;2022-11-04T09:52:06;1.50;;;0.80;;
42134;SDS011;28312;43.460;11.810;2022-11-04T10:00:24;3.22;;;0.95;;
42134;SDS011;28312;43.460;11.810;2022-11-04T10:13:24;3.03;;;1.20;;
42134;SDS011;28312;43.460;11.810;2022-11-04T10:18:26;6.03;;;0.90;;
42134;SDS011;28312;43.460;11.810;2022-11-04T10:27:27;3.22;;;0.80;;
42134;SDS011;28312;43.460;11.810;2022-11-04T10:31:34;2.45;;;0.63;;
42134;SDS011;28312;43.460;11.810;2022-11-04T10:35:47;2.03;;;0.75;;
42134;SDS011;28312;43.460;11.810;2022-11-04T10:40:37;3.38;;;0.95;;
42134;SDS011;28312;43.460;11.810;2022-11-04T10:44:31;3.70;;;0.87;;
42134;SDS011;28312;43.460;11.810;2022-11-04T10:48:48;2.30;;;0.90;;
42134;SDS011;28312;43.460;11.810;2022-11-04T10:53:12;1.63;;;0.70;;
42134;SDS011;28312;43.460;11.810;2022-11-04T10:57:27;1.83;;;0.80;;
42134;SDS011;28312;43.460;11.810;2022-11-04T11:01:33;3.27;;;1.10;;
42134;SDS011;28312;43.460;11.810;2022-11-04T11:05:39;3.60;;;1.38;;
42134;SDS011;28312;43.460;11.810;2022-11-04T11:09:49;2.38;;;0.82;;
42134;SDS011;28312;43.460;11.810;2022-11-04T11:13:56;1.95;;;0.70;;
42134;SDS011;28312;43.460;11.810;2022-11-04T11:18:05;1.35;;;0.90;;
42134;SDS011;28312;43.460;11.810;2022-11-04T11:22:36;2.90;;;0.75;;
42134;SDS011;28312;43.460;11.810;2022-11-04T11:26:42;3.08;;;0.85;;
42134;SDS011;28312;43.460;11.810;2022-11-04T11:31:00;3.33;;;0.85;;
42134;SDS011;28312;43.460;11.810;2022-11-04T11:35:17;2.22;;;1.00;;
42134;SDS011;28312;43.460;11.810;2022-11-04T11:39:27;4.13;;;0.93;;
42134;SDS011;28312;43.460;11.810;2022-11-04T11:43:32;5.43;;;1.05;;
42134;SDS011;28312;43.460;11.810;2022-11-04T11:47:38;2.08;;;0.60;;
42134;SDS011;28312;43.460;11.810;2022-11-04T11:51:44;2.70;;;1.05;;
42134;SDS011;28312;43.460;11.810;2022-11-04T11:55:49;3.00;;;1.15;;
42134;SDS011;28312;43.460;11.810;2022-11-04T12:00:04;1.33;;;0.70;;
42134;SDS011;28312;43.460;11.810;2022-11-04T12:04:32;4.95;;;1.00;;
42134;SDS011;28312;43.460;11.810;2022-11-04T12:13:25;1.55;;;0.75;;
42134;SDS011;28312;43.460;11.810;2022-11-04T12:17:53;3.90;;;1.10;;
42134;SDS011;28312;43.460;11.810;2022-11-04T12:22:17;2.75;;;0.90;;
42134;SDS011;28312;43.460;11.810;2022-11-04T12:26:30;1.98;;;0.80;;
42134;SDS011;28312;43.460;11.810;2022-11-04T12:30:43;4.22;;;0.93;;
42134;SDS011;28312;43.460;11.810;2022-11-04T12:57:42;3.88;;;0.60;;
42134;SDS011;28312;43.460;11.810;2022-11-04T13:01:47;5.50;;;0.90;;
42134;SDS011;28312;43.460;11.810;2022-11-04T13:06:01;4.75;;;0.93;;
42134;SDS011;28312;43.460;11.810;2022-11-04T13:10:17;1.83;;;0.70;;
42134;SDS011;28312;43.460;11.810;2022-11-04T13:14:33;3.58;;;1.10;;
42134;SDS011;28312;43.460;11.810;2022-11-04T13:18:44;1.08;;;0.45;;
42134;SDS011;28312;43.460;11.810;2022-11-04T13:22:50;3.53;;;0.55;;
42134;SDS011;28312;43.460;11.810;2022-11-04T13:27:08;2.47;;;0.70;;
42134;SDS011;28312;43.460;11.810;2022-11-04T13:40:19;2.28;;;1.15;;
42134;SDS011;28312;43.460;11.810;2022-11-04T13:44:29;5.60;;;1.42;;
42134;SDS011;28312;43.460;11.810;2022-11-04T13:48:40;2.50;;;0.80;;
42134;SDS011;28312;43.460;11.810;2022-11-04T13:52:52;2.40;;;0.90;;
42134;SDS011;28312;43.460;11.810;2022-11-04T13:57:03;1.83;;;0.73;;
42134;SDS011;28312;43.460;11.810;2022-11-04T14:01:11;2.60;;;0.75;;
42134;SDS011;28312;43.460;11.810;2022-11-04T14:13:46;2.55;;;0.52;;
42134;SDS011;28312;43.460;11.810;2022-11-04T14:18:24;2.60;;;1.00;;
42134;SDS011;28312;43.460;11.810;2022-11-04T14:26:46;4.03;;;0.80;;
42134;SDS011;28312;43.460;11.810;2022-11-04T14:30:51;1.67;;;0.50;;
42134;SDS011;28312;43.460;11.810;2022-11-04T14:35:18;2.33;;;0.80;;
42134;SDS011;28312;43.460;11.810;2022-11-04T14:39:23;0.47;;;0.32;;
42134;SDS011;28312;43.460;11.810;2022-11-04T14:43:35;2.72;;;0.88;;
42134;SDS011;28312;43.460;11.810;2022-11-04T14:47:47;1.25;;;0.68;;
42134;SDS011;28312;43.460;11.810;2022-11-04T14:51:52;2.65;;;1.20;;
42134;SDS011;28312;43.460;11.810;2022-11-04T14:56:03;4.78;;;1.33;;
42134;SDS011;28312;43.460;11.810;2022-11-04T15:04:31;4.03;;;1.00;;
42134;SDS011;28312;43.460;11.810;2022-11-04T15:12:43;2.20;;;0.70;;
42134;SDS011;28312;43.460;11.810;2022-11-04T15:16:53;1.48;;;0.28;;
42134;SDS011;28312;43.460;11.810;2022-11-04T15:21:03;0.28;;;0.20;;
42134;SDS011;28312;43.460;11.810;2022-11-04T15:25:09;1.25;;;0.88;;
42134;SDS011;28312;43.460;11.810;2022-11-04T15:29:13;2.00;;;0.80;;
42134;SDS011;28312;43.460;11.810;2022-11-04T15:33:19;2.08;;;0.82;;
42134;SDS011;28312;43.460;11.810;2022-11-04T15:37:24;1.10;;;0.52;;
42134;SDS011;28312;43.460;11.810;2022-11-04T15:41:30;1.40;;;0.55;;
42134;SDS011;28312;43.460;11.810;2022-11-04T15:45:53;0.75;;;0.32;;
42134;SDS011;28312;43.460;11.810;2022-11-04T15:50:01;1.00;;;0.45;;
42134;SDS011;28312;43.460;11.810;2022-11-04T15:54:19;1.00;;;0.45;;
42134;SDS011;28312;43.460;11.810;2022-11-04T15:58:28;3.65;;;0.40;;
42134;SDS011;28312;43.460;11.810;2022-11-04T16:02:43;0.70;;;0.40;;
42134;SDS011;28312;43.460;11.810;2022-11-04T16:11:13;0.73;;;0.50;;
42134;SDS011;28312;43.460;11.810;2022-11-04T16:15:32;1.00;;;0.68;;
42134;SDS011;28312;43.460;11.810;2022-11-04T16:19:37;1.42;;;0.43;;
42134;SDS011;28312;43.460;11.810;2022-11-04T16:23:43;1.27;;;0.68;;
42134;SDS011;28312;43.460;11.810;2022-11-04T16:28:14;1.67;;;0.85;;
42134;SDS011;28312;43.460;11.810;2022-11-04T16:32:24;2.20;;;1.10;;
42134;SDS011;28312;43.460;11.810;2022-11-04T16:36:43;1.10;;;0.60;;
42134;SDS011;28312;43.460;11.810;2022-11-04T16:40:48;2.40;;;0.90;;
42134;SDS011;28312;43.460;11.810;2022-11-04T16:44:54;3.67;;;1.30;;
42134;SDS011;28312;43.460;11.810;2022-11-04T16:49:04;8.93;;;1.60;;
42134;SDS011;28312;43.460;11.810;2022-11-04T16:53:08;3.83;;;1.13;;
42134;SDS011;28312;43.460;11.810;2022-11-04T16:57:13;2.80;;;1.10;;
42134;SDS011;28312;43.460;11.810;2022-11-04T17:01:17;2.17;;;0.82;;
42134;SDS011;28312;43.460;11.810;2022-11-04T17:05:21;1.27;;;0.80;;
42134;SDS011;28312;43.460;11.810;2022-11-04T17:09:25;2.38;;;1.10;;
42134;SDS011;28312;43.460;11.810;2022-11-04T17:13:28;2.38;;;0.93;;
42134;SDS011;28312;43.460;11.810;2022-11-04T17:17:38;6.50;;;1.23;;
42134;SDS011;28312;43.460;11.810;2022-11-04T17:21:42;1.13;;;0.68;;
42134;SDS011;28312;43.460;11.810;2022-11-04T17:25:47;2.47;;;1.23;;
42134;SDS011;28312;43.460;11.810;2022-11-04T17:29:52;2.47;;;1.02;;
42134;SDS011;28312;43.460;11.810;2022-11-04T17:33:55;4.10;;;0.80;;
42134;SDS011;28312;43.460;11.810;2022-11-04T17:38:01;1.85;;;1.00;;
42134;SDS011;28312;43.460;11.810;2022-11-04T17:42:05;2.88;;;1.00;;
42134;SDS011;28312;43.460;11.810;2022-11-04T17:46:30;2.20;;;1.00;;
42134;SDS011;28312;43.460;11.810;2022-11-04T17:50:40;1.83;;;0.98;;
42134;SDS011;28312;43.460;11.810;2022-11-04T17:54:44;4.10;;;1.40;;
42134;SDS011;28312;43.460;11.810;2022-11-04T17:58:48;2.25;;;0.80;;
42134;SDS011;28312;43.460;11.810;2022-11-04T18:02:52;2.10;;;1.02;;
42134;SDS011;28312;43.460;11.810;2022-11-04T18:06:55;4.47;;;1.05;;
42134;SDS011;28312;43.460;11.810;2022-11-04T18:11:05;3.70;;;1.65;;
42134;SDS011;28312;43.460;11.810;2022-11-04T18:15:11;4.07;;;1.35;;
42134;SDS011;28312;43.460;11.810;2022-11-04T18:19:16;3.67;;;1.08;;
42134;SDS011;28312;43.460;11.810;2022-11-04T18:23:21;5.50;;;1.90;;
42134;SDS011;28312;43.460;11.810;2022-11-04T18:27:26;5.80;;;1.67;;
42134;SDS011;28312;43.460;11.810;2022-11-04T18:31:31;3.83;;;1.30;;
42134;SDS011;28312;43.460;11.810;2022-11-04T18:35:38;2.13;;;0.80;;
42134;SDS011;28312;43.460;11.810;2022-11-04T18:39:44;4.65;;;1.25;;
42134;SDS011;28312;43.460;11.810;2022-11-04T18:43:47;2.55;;;1.33;;
42134;SDS011;28312;43.460;11.810;2022-11-04T18:47:50;4.60;;;2.17;;
42134;SDS011;28312;43.460;11.810;2022-11-04T18:51:54;4.65;;;1.38;;
42134;SDS011;28312;43.460;11.810;2022-11-04T18:56:01;9.55;;;2.33;;
42134;SDS011;28312;43.460;11.810;2022-11-04T19:00:05;3.97;;;1.90;;
42134;SDS011;28312;43.460;11.810;2022-11-04T19:04:17;4.22;;;1.52;;
42134;SDS011;28312;43.460;11.810;2022-11-04T19:08:20;6.15;;;2.40;;
42134;SDS011;28312;43.460;11.810;2022-11-04T19:12:24;5.15;;;2.03;;
42134;SDS011;28312;43.460;11.810;2022-11-04T19:16:59;4.95;;;1.85;;
42134;SDS011;28312;43.460;11.810;2022-11-04T19:21:07;3.85;;;1.50;;
42134;SDS011;28312;43.460;11.810;2022-11-04T19:25:13;3.40;;;1.40;;
42134;SDS011;28312;43.460;11.810;2022-11-04T19:29:16;3.50;;;1.80;;
42134;SDS011;28312;43.460;11.810;2022-11-04T19:33:20;2.78;;;1.45;;
42134;SDS011;28312;43.460;11.810;2022-11-04T19:37:23;5.75;;;2.15;;
42134;SDS011;28312;43.460;11.810;2022-11-04T19:41:26;4.88;;;2.15;;
42134;SDS011;28312;43.460;11.810;2022-11-04T19:45:49;3.78;;;1.92;;
42134;SDS011;28312;43.460;11.810;2022-11-04T19:49:52;3.03;;;1.40;;
42134;SDS011;28312;43.460;11.810;2022-11-04T19:53:57;1.30;;;0.80;;
42134;SDS011;28312;43.460;11.810;2022-11-04T19:58:00;2.72;;;1.55;;
42134;SDS011;28312;43.460;11.810;2022-11-04T20:02:08;2.67;;;1.60;;
42134;SDS011;28312;43.460;11.810;2022-11-04T20:06:15;1.58;;;0.80;;
42134;SDS011;28312;43.460;11.810;2022-11-04T20:10:22;2.90;;;1.85;;
42134;SDS011;28312;43.460;11.810;2022-11-04T20:14:26;2.95;;;1.48;;
42134;SDS011;28312;43.460;11.810;2022-11-04T20:18:30;3.28;;;1.65;;
42134;SDS011;28312;43.460;11.810;2022-11-04T20:22:33;3.92;;;1.65;;
42134;SDS011;28312;43.460;11.810;2022-11-04T20:26:37;3.42;;;1.92;;
42134;SDS011;28312;43.460;11.810;2022-11-04T20:30:42;2.75;;;1.27;;
42134;SDS011;28312;43.460;11.810;2022-11-04T20:34:46;6.07;;;2.35;;
42134;SDS011;28312;43.460;11.810;2022-11-04T20:43:11;3.08;;;1.58;;
42134;SDS011;28312;43.460;11.810;2022-11-04T20:47:14;2.60;;;1.38;;
42134;SDS011;28312;43.460;11.810;2022-11-04T20:51:20;2.65;;;1.55;;
42134;SDS011;28312;43.460;11.810;2022-11-04T20:55:25;2.63;;;1.60;;
42134;SDS011;28312;43.460;11.810;2022-11-04T20:59:29;2.13;;;1.08;;
42134;SDS011;28312;43.460;11.810;2022-11-04T21:03:33;4.97;;;1.52;;
42134;SDS011;28312;43.460;11.810;2022-11-04T21:07:36;3.33;;;1.33;;
42134;SDS011;28312;43.460;11.810;2022-11-04T21:11:41;1.63;;;1.10;;
42134;SDS011;28312;43.460;11.810;2022-11-04T21:15:51;3.10;;;1.33;;
42134;SDS011;28312;43.460;11.810;2022-11-04T21:19:56;2.75;;;1.50;;
42134;SDS011;28312;43.460;11.810;2022-11-04T21:24:03;5.80;;;2.70;;
42134;SDS011;28312;43.460;11.810;2022-11-04T21:28:07;1.83;;;1.23;;
42134;SDS011;28312;43.460;11.810;2022-11-04T21:32:11;2.65;;;1.10;;
42134;SDS011;28312;43.460;11.810;2022-11-04T21:36:15;2.50;;;1.50;;
42134;SDS011;28312;43.460;11.810;2022-11-04T21:40:19;5.63;;;2.03;;
42134;SDS011;28312;43.460;11.810;2022-11-04T21:44:23;3.60;;;2.28;;
42134;SDS011;28312;43.460;11.810;2022-11-04T21:48:26;6.55;;;1.45;;
42134;SDS011;28312;43.460;11.810;2022-11-04T21:52:31;1.27;;;0.85;;
42134;SDS011;28312;43.460;11.810;2022-11-04T21:56:34;4.25;;;1.50;;
42134;SDS011;28312;43.460;11.810;2022-11-04T22:00:38;2.75;;;1.05;;
42134;SDS011;28312;43.460;11.810;2022-11-04T22:04:42;2.13;;;1.02;;
42134;SDS011;28312;43.460;11.810;2022-11-04T22:08:47;2.20;;;1.13;;
42134;SDS011;28312;43.460;11.810;2022-11-04T22:12:56;1.80;;;0.85;;
42134;SDS011;28312;43.460;11.810;2022-11-04T22:17:02;2.10;;;1.30;;
42134;SDS011;28312;43.460;11.810;2022-11-04T22:21:08;2.83;;;1.42;;
42134;SDS011;28312;43.460;11.810;2022-11-04T22:25:15;2.95;;;1.30;;
42134;SDS011;28312;43.460;11.810;2022-11-04T22:29:20;1.70;;;0.98;;
42134;SDS011;28312;43.460;11.810;2022-11-04T22:33:24;2.50;;;1.13;;
42134;SDS011;28312;43.460;11.810;2022-11-04T22:37:33;2.58;;;1.45;;
42134;SDS011;28312;43.460;11.810;2022-11-04T22:41:37;4.00;;;2.28;;
42134;SDS011;28312;43.460;11.810;2022-11-04T22:45:43;2.80;;;1.23;;
42134;SDS011;28312;43.460;11.810;2022-11-04T22:49:48;3.35;;;1.55;;
42134;SDS011;28312;43.460;11.810;2022-11-04T22:53:53;1.80;;;1.10;;
42134;SDS011;28312;43.460;11.810;2022-11-04T22:58:04;2.22;;;1.10;;
42134;SDS011;28312;43.460;11.810;2022-11-04T23:02:08;5.50;;;1.60;;
42134;SDS011;28312;43.460;11.810;2022-11-04T23:06:12;2.22;;;0.90;;
42134;SDS011;28312;43.460;11.810;2022-11-04T23:10:17;1.52;;;0.82;;
42134;SDS011;28312;43.460;11.810;2022-11-04T23:14:39;1.33;;;0.82;;
42134;SDS011;28312;43.460;11.810;2022-11-04T23:19:01;2.05;;;1.10;;
42134;SDS011;28312;43.460;11.810;2022-11-04T23:23:04;1.52;;;0.80;;
42134;SDS011;28312;43.460;11.810;2022-11-04T23:27:26;1.02;;;0.60;;
42134;SDS011;28312;43.460;11.810;2022-11-04T23:31:48;1.70;;;0.80;;
42134;SDS011;28312;43.460;11.810;2022-11-04T23:35:52;4.63;;;1.48;;
42134;SDS011;28312;43.460;11.810;2022-11-04T23:40:14;5.20;;;1.15;;
42134;SDS011;28312;43.460;11.810;2022-11-04T23:44:18;1.08;;;0.70;;
42134;SDS011;28312;43.460;11.810;2022-11-04T23:48:44;4.68;;;1.80;;
42134;SDS011;28312;43.460;11.810;2022-11-04T23:53:06;1.42;;;0.80;;
42134;SDS011;28312;43.460;11.810;2022-11-04T23:57:29;2.08;;;1.10;;
